Time;durP1;ratioP1;P1;durP2;ratioP2;P2;SDS_P1;SDS_P2;PMS_P1;PMS_P2;Temp;Humidity;BMP_temperature;BMP_pressure;BME280_temperature;BME280_humidity;BME280_pressure;Samples;Min_cycle;Max_cycle;Signal;HPM_P1;HPM_P2
2022/12/29 00:02:19;;;;;;;17.90;3.00;;;;;;;9.63;100.00;96063.66;5082211;28;20170;-82
2022/12/29 00:04:44;;;;;;;7.47;2.30;;;;;;;9.77;100.00;96069.13;5071271;28;20073;-80
2022/12/29 00:07:11;;;;;;;10.65;2.40;;;;;;;9.80;100.00;96071.22;5079881;28;20539;-81
2022/12/29 00:09:39;;;;;;;11.75;2.75;;;;;;;9.65;100.00;96084.34;5081599;28;20103;-81
2022/12/29 00:12:05;;;;;;;13.82;2.58;;;;;;;9.67;100.00;96063.91;5086788;28;20089;-80
2022/12/29 00:17:15;;;;;;;11.70;2.80;;;;;;;9.74;100.00;96079.38;5087724;28;20059;-81
2022/12/29 00:36:28;;;;;;;12.88;2.97;;;;;;;9.76;100.00;96044.00;5079077;28;20105;-80
2022/12/29 00:44:31;;;;;;;10.50;2.95;;;;;;;9.51;100.00;96019.38;5087306;28;20028;-80
2022/12/29 00:46:57;;;;;;;8.70;2.60;;;;;;;9.88;100.00;96035.09;5083334;28;20111;-81
2022/12/29 00:49:31;;;;;;;12.45;2.50;;;;;;;9.56;100.00;96016.75;5086600;28;20020;-79
2022/12/29 00:52:06;;;;;;;10.90;2.70;;;;;;;9.60;100.00;96037.19;5085527;28;20093;-81
2022/12/29 00:54:34;;;;;;;19.83;3.00;;;;;;;9.80;100.00;96042.41;5081109;28;20032;-80
2022/12/29 00:57:01;;;;;;;15.98;2.45;;;;;;;9.88;100.00;96032.47;5088956;28;20044;-82
2022/12/29 00:59:27;;;;;;;10.93;2.92;;;;;;;9.62;100.00;96046.34;5084119;28;20024;-80
2022/12/29 01:01:54;;;;;;;15.10;2.92;;;;;;;9.64;100.00;96049.50;5079454;28;20032;-80
2022/12/29 01:04:21;;;;;;;15.85;3.97;;;;;;;9.52;100.00;96025.41;5086259;28;20071;-81
2022/12/29 01:06:47;;;;;;;12.60;2.95;;;;;;;9.65;100.00;96037.19;5080867;28;20040;-79
2022/12/29 01:11:58;;;;;;;14.77;2.90;;;;;;;9.52;100.00;96041.91;5081077;28;20032;-80
2022/12/29 01:14:24;;;;;;;17.85;3.13;;;;;;;9.65;100.00;96029.34;5081369;28;20101;-80
2022/12/29 01:16:51;;;;;;;9.82;2.88;;;;;;;9.64;100.00;96033.00;5084023;28;20078;-80
2022/12/29 01:19:18;;;;;;;12.95;2.53;;;;;;;9.40;100.00;96033.50;5083737;28;20068;-81
2022/12/29 01:21:45;;;;;;;17.20;3.58;;;;;;;9.51;100.00;96027.25;5079337;28;20554;-81
2022/12/29 01:24:11;;;;;;;17.35;3.03;;;;;;;9.13;100.00;96009.13;5080201;28;20056;-81
2022/12/29 01:26:38;;;;;;;12.85;2.65;;;;;;;9.37;100.00;96024.38;5082794;28;20043;-81
2022/12/29 01:29:04;;;;;;;13.63;3.00;;;;;;;9.53;100.00;96032.19;5084709;28;20028;-81
2022/12/29 01:31:30;;;;;;;13.63;3.30;;;;;;;9.50;100.00;96072.81;5081231;28;20024;-80
2022/12/29 01:33:56;;;;;;;9.85;2.20;;;;;;;9.39;100.00;96024.09;5082610;28;20039;-80
2022/12/29 01:36:21;;;;;;;15.32;2.92;;;;;;;9.24;100.00;96032.72;5084564;28;20177;-80
2022/12/29 01:38:47;;;;;;;10.60;3.38;;;;;;;9.26;100.00;96039.28;5082401;28;20418;-81
2022/12/29 01:41:15;;;;;;;14.95;3.05;;;;;;;9.42;100.00;96055.78;5080407;28;20035;-81
2022/12/29 01:43:48;;;;;;;8.55;2.22;;;;;;;9.58;100.00;96067.03;5081420;28;20050;-82
2022/12/29 01:46:40;;;;;;;14.93;2.22;;;;;;;9.74;100.00;96064.44;5061541;28;20028;-80
2022/12/29 01:49:08;;;;;;;14.18;4.00;;;;;;;9.53;100.00;96080.13;5077820;28;20073;-81
2022/12/29 01:51:59;;;;;;;7.40;2.10;;;;;;;9.37;100.00;96089.81;5080123;28;20025;-81
2022/12/29 01:54:31;;;;;;;10.48;3.20;;;;;;;9.49;100.00;96094.81;5076577;28;20047;-81
2022/12/29 01:57:01;;;;;;;14.95;2.75;;;;;;;9.41;100.00;96090.06;5080983;28;20040;-81
2022/12/29 01:59:32;;;;;;;11.20;2.60;;;;;;;9.60;100.00;96100.03;5081459;28;20036;-81
2022/12/29 02:01:58;;;;;;;11.20;2.28;;;;;;;9.27;100.00;96101.03;5083171;28;20528;-81
2022/12/29 02:04:26;;;;;;;16.10;2.80;;;;;;;9.40;100.00;96101.56;5065586;28;20538;-81
2022/12/29 02:07:07;;;;;;;23.88;3.38;;;;;;;9.19;100.00;96125.09;5080023;28;20032;-81
2022/12/29 02:09:34;;;;;;;14.60;3.35;;;;;;;9.10;100.00;96139.72;5080421;28;20474;-81
2022/12/29 02:12:01;;;;;;;20.77;3.35;;;;;;;9.04;100.00;96166.91;5081478;28;20024;-82
2022/12/29 02:14:26;;;;;;;21.15;2.78;;;;;;;8.71;100.00;96167.81;5081414;28;20078;-81
2022/12/29 02:17:07;;;;;;;22.20;3.38;;;;;;;8.82;100.00;96189.56;5079984;28;20037;-81
2022/12/29 02:19:59;;;;;;;26.00;3.75;;;;;;;8.57;100.00;96218.97;5078900;28;20032;-81
2022/12/29 02:22:54;;;;;;;6.72;1.50;;;;;;;6.91;100.00;96259.00;5064195;28;20044;-82
2022/12/29 02:25:50;;;;;;;3.13;1.10;;;;;;;6.46;100.00;96276.31;5084475;28;20028;-82
2022/12/29 02:28:28;;;;;;;1.83;0.70;;;;;;;6.60;100.00;96263.75;5076027;28;20020;-82
2022/12/29 02:31:20;;;;;;;0.88;0.85;;;;;;;6.34;100.00;96249.53;5082629;28;20110;-81
2022/12/29 02:34:22;;;;;;;1.45;1.10;;;;;;;6.86;100.00;96230.22;5085544;28;20089;-83
2022/12/29 02:37:09;;;;;;;4.95;2.40;;;;;;;6.72;100.00;96225.38;5083381;28;20028;-83
2022/12/29 02:39:41;;;;;;;10.05;3.13;;;;;;;6.83;100.00;96233.31;5084749;28;20439;-82
2022/12/29 02:42:29;;;;;;;3.60;2.90;;;;;;;6.68;100.00;96237.31;5083874;28;20034;-83
2022/12/29 02:45:22;;;;;;;6.78;2.05;;;;;;;6.57;100.00;96225.16;5081013;28;20032;-83
2022/12/29 02:48:10;;;;;;;4.97;1.40;;;;;;;6.70;100.00;96231.84;5082676;28;20036;-83
2022/12/29 02:50:41;;;;;;;3.47;1.23;;;;;;;6.56;100.00;96220.97;5075359;28;20028;-82
2022/12/29 02:53:13;;;;;;;2.10;1.10;;;;;;;6.47;100.00;96230.19;5082817;28;20516;-84
2022/12/29 02:55:41;;;;;;;0.70;0.70;;;;;;;6.78;100.00;96230.66;5083097;28;20044;-83
2022/12/29 02:58:16;;;;;;;3.75;0.80;;;;;;;6.68;100.00;96213.84;5081246;28;20047;-82
2022/12/29 03:00:57;;;;;;;2.38;0.88;;;;;;;6.57;100.00;96219.94;5083054;28;20031;-82
2022/12/29 03:03:47;;;;;;;2.88;1.00;;;;;;;6.96;100.00;96240.81;5077569;28;20047;-81
2022/12/29 03:06:51;;;;;;;2.20;1.10;;;;;;;6.82;100.00;96226.53;5079072;28;20036;-82
2022/12/29 03:09:57;;;;;;;5.25;1.63;;;;;;;7.04;100.00;96223.16;5063725;28;20056;-82
2022/12/29 03:18:35;;;;;;;5.82;2.00;;;;;;;7.13;100.00;96206.09;5076813;28;20394;-82
2022/12/29 03:21:17;;;;;;;3.45;1.80;;;;;;;7.34;100.00;96217.53;5079943;28;20028;-82
2022/12/29 03:23:48;;;;;;;7.22;1.90;;;;;;;7.56;100.00;96230.59;5084357;28;20039;-82
2022/12/29 03:26:18;;;;;;;5.72;2.20;;;;;;;7.33;100.00;96220.41;5081153;28;20032;-83
2022/12/29 03:28:54;;;;;;;6.55;3.08;;;;;;;7.36;100.00;96240.78;5066806;28;20107;-83
2022/12/29 03:31:23;;;;;;;5.57;2.70;;;;;;;7.64;100.00;96237.19;5079064;28;20512;-83
2022/12/29 03:33:51;;;;;;;6.38;3.50;;;;;;;7.52;100.00;96229.50;5074556;28;20039;-82
2022/12/29 03:36:32;;;;;;;10.20;4.43;;;;;;;7.52;100.00;96224.28;5081933;28;20478;-83
2022/12/29 03:39:05;;;;;;;9.50;4.50;;;;;;;7.45;100.00;96260.19;5076804;28;20414;-82
2022/12/29 03:41:33;;;;;;;15.88;5.85;;;;;;;7.74;100.00;96267.84;5079495;28;20116;-82
2022/12/29 03:43:58;;;;;;;10.63;6.03;;;;;;;7.80;100.00;96282.53;5083351;28;20081;-82
2022/12/29 03:46:24;;;;;;;11.15;5.82;;;;;;;7.80;100.00;96282.53;5081430;28;20498;-81
2022/12/29 03:48:49;;;;;;;8.77;5.30;;;;;;;7.84;100.00;96270.56;5082891;28;20024;-81
2022/12/29 03:51:15;;;;;;;8.50;5.15;;;;;;;7.82;100.00;96283.06;5078739;28;20032;-80
2022/12/29 03:53:41;;;;;;;8.73;5.95;;;;;;;7.57;100.00;96279.16;5081028;28;20027;-82
2022/12/29 03:56:06;;;;;;;11.50;5.88;;;;;;;8.06;100.00;96282.00;5082405;28;20028;-80
2022/12/29 03:58:32;;;;;;;8.15;5.95;;;;;;;7.97;100.00;96287.69;5077281;28;20135;-81
2022/12/29 04:00:57;;;;;;;9.93;6.45;;;;;;;7.64;100.00;96296.44;5078448;28;20845;-82
2022/12/29 04:03:23;;;;;;;11.95;6.25;;;;;;;7.65;100.00;96300.63;5082942;28;20028;-81
2022/12/29 04:05:48;;;;;;;12.35;6.32;;;;;;;7.48;100.00;96285.84;5083481;28;20466;-81
2022/12/29 04:08:14;;;;;;;8.80;6.13;;;;;;;7.95;100.00;96299.41;5079756;28;20033;-81
2022/12/29 04:10:40;;;;;;;12.25;6.55;;;;;;;8.07;100.00;96307.91;5082593;28;20033;-82
2022/12/29 04:13:06;;;;;;;9.73;5.05;;;;;;;8.11;100.00;96316.81;5066217;28;20394;-80
2022/12/29 04:15:32;;;;;;;4.38;3.88;;;;;;;8.03;100.00;96319.09;5084776;28;20028;-79
2022/12/29 04:17:58;;;;;;;8.13;3.40;;;;;;;8.20;100.00;96332.84;5083159;28;20035;-82
2022/12/29 04:23:07;;;;;;;8.23;3.50;;;;;;;8.24;100.00;96341.78;5085647;28;20039;-81
2022/12/29 04:25:33;;;;;;;10.15;3.03;;;;;;;8.20;100.00;96351.13;5085048;28;20390;-80
2022/12/29 04:27:59;;;;;;;3.20;2.90;;;;;;;8.44;100.00;96369.16;5084613;28;20028;-82
2022/12/29 04:30:25;;;;;;;5.30;3.17;;;;;;;8.00;100.00;96380.44;5083463;28;20055;-84
2022/12/29 04:32:50;;;;;;;8.40;3.63;;;;;;;8.11;100.00;96382.13;5083637;28;20031;-80
2022/12/29 04:35:16;;;;;;;3.92;3.53;;;;;;;8.23;100.00;96371.56;5086333;28;20126;-83
2022/12/29 04:37:42;;;;;;;5.55;4.90;;;;;;;8.41;100.00;96401.78;5083645;28;20059;-83
2022/12/29 04:40:08;;;;;;;9.65;4.72;;;;;;;8.28;100.00;96404.78;5087952;28;20353;-83
2022/12/29 04:42:34;;;;;;;5.50;4.65;;;;;;;8.13;100.00;96372.22;5083782;28;20131;-83
2022/12/29 04:45:00;;;;;;;9.82;5.38;;;;;;;8.52;100.00;96401.94;5080918;28;20111;-84
2022/12/29 04:47:25;;;;;;;6.75;5.25;;;;;;;8.08;100.00;96376.59;5085163;28;20028;-84
2022/12/29 04:49:51;;;;;;;8.00;6.18;;;;;;;8.19;100.00;96419.31;5081790;28;20025;-84
2022/12/29 04:52:17;;;;;;;11.90;7.00;;;;;;;8.37;100.00;96399.94;5084962;28;20457;-83
2022/12/29 04:54:42;;;;;;;12.63;6.72;;;;;;;8.31;100.00;96438.28;5081927;28;20497;-83
2022/12/29 04:57:08;;;;;;;8.30;6.60;;;;;;;8.21;100.00;96441.56;5082324;28;21331;-84
2022/12/29 04:59:33;;;;;;;9.65;6.55;;;;;;;7.97;100.00;96417.50;5083350;28;20029;-83
2022/12/29 05:01:59;;;;;;;13.00;7.00;;;;;;;8.51;100.00;96434.34;5080840;28;20032;-83
2022/12/29 05:04:24;;;;;;;13.48;7.65;;;;;;;8.19;100.00;96445.44;5086359;28;20123;-84
2022/12/29 05:06:50;;;;;;;11.15;6.47;;;;;;;8.20;100.00;96442.59;5084286;28;20435;-84
2022/12/29 05:09:16;;;;;;;11.77;6.30;;;;;;;8.70;100.00;96450.47;5084058;28;20028;-83
2022/12/29 05:11:41;;;;;;;11.98;6.85;;;;;;;8.47;100.00;96482.91;5079365;28;20028;-83
2022/12/29 05:14:07;;;;;;;11.18;5.93;;;;;;;8.18;100.00;96475.22;5083822;28;20367;-83
2022/12/29 05:16:33;;;;;;;9.48;5.80;;;;;;;8.26;100.00;96466.97;5081723;28;20370;-85
2022/12/29 05:18:58;;;;;;;9.80;5.85;;;;;;;8.61;100.00;96465.81;5085686;28;20103;-82
2022/12/29 05:21:24;;;;;;;9.90;5.93;;;;;;;8.44;100.00;96474.47;5080924;28;20042;-83
2022/12/29 05:23:49;;;;;;;14.68;6.07;;;;;;;8.21;100.00;96478.16;5086138;28;20024;-83
2022/12/29 05:26:15;;;;;;;9.38;5.65;;;;;;;8.32;100.00;96480.88;5064428;28;20039;-82
2022/12/29 05:28:40;;;;;;;9.45;5.32;;;;;;;8.41;100.00;96493.28;5063910;28;20094;-83
2022/12/29 05:31:06;;;;;;;7.35;5.15;;;;;;;8.17;100.00;96516.25;5080999;28;20032;-83
2022/12/29 05:33:32;;;;;;;10.77;5.13;;;;;;;8.17;100.00;96510.22;5084670;28;20040;-83
2022/12/29 05:36:03;;;;;;;6.50;4.45;;;;;;;8.07;100.00;96516.09;5081685;28;20140;-82
2022/12/29 05:38:29;;;;;;;7.38;4.47;;;;;;;8.48;100.00;96521.06;5082259;28;20439;-84
2022/12/29 05:40:55;;;;;;;6.90;4.28;;;;;;;8.15;100.00;96524.31;5082120;28;20077;-84
2022/12/29 05:43:21;;;;;;;9.32;3.83;;;;;;;8.43;100.00;96529.63;5084445;28;20025;-83
2022/12/29 05:45:49;;;;;;;6.22;3.40;;;;;;;7.95;100.00;96516.97;5085558;28;20025;-83
2022/12/29 05:48:15;;;;;;;5.30;3.13;;;;;;;8.01;100.00;96525.69;5084165;28;20028;-83
2022/12/29 05:50:44;;;;;;;6.72;3.00;;;;;;;8.30;100.00;96538.63;5080177;28;20050;-83
2022/12/29 05:53:09;;;;;;;8.25;3.13;;;;;;;8.39;100.00;96552.84;5086046;28;20028;-82
2022/12/29 05:55:36;;;;;;;5.07;2.55;;;;;;;8.49;100.00;96561.88;5077223;28;20035;-83
2022/12/29 05:58:01;;;;;;;8.48;2.42;;;;;;;8.17;100.00;96565.09;5082969;28;20066;-83
2022/12/29 06:00:27;;;;;;;8.43;3.10;;;;;;;7.89;100.00;96527.63;5081642;28;20502;-82
2022/12/29 06:02:53;;;;;;;5.10;2.70;;;;;;;8.10;100.00;96519.03;5062398;28;20060;-82
2022/12/29 06:05:19;;;;;;;9.35;2.00;;;;;;;8.19;100.00;96549.97;5083959;28;20544;-82
2022/12/29 06:07:45;;;;;;;5.57;2.00;;;;;;;8.32;100.00;96561.91;5084748;28;20106;-83
2022/12/29 06:10:11;;;;;;;2.63;1.60;;;;;;;8.33;100.00;96572.13;5082439;28;20423;-83
2022/12/29 06:12:36;;;;;;;4.70;1.60;;;;;;;8.31;100.00;96579.41;5079726;28;20038;-83
2022/12/29 06:15:03;;;;;;;2.92;1.30;;;;;;;8.55;100.00;96571.38;5083322;28;20036;-83
2022/12/29 06:17:28;;;;;;;4.10;1.50;;;;;;;8.45;100.00;96564.16;5084249;28;20373;-83
2022/12/29 06:19:54;;;;;;;4.18;1.92;;;;;;;8.30;100.00;96575.22;5064473;28;20030;-83
2022/12/29 06:22:20;;;;;;;3.63;1.60;;;;;;;8.47;100.00;96577.00;5079873;28;20038;-84
2022/12/29 06:24:45;;;;;;;7.30;2.40;;;;;;;8.19;100.00;96560.41;5081960;28;20024;-83
2022/12/29 06:27:11;;;;;;;5.60;1.60;;;;;;;8.46;100.00;96575.44;5084017;28;20037;-84
2022/12/29 06:29:36;;;;;;;3.53;1.38;;;;;;;8.06;100.00;96567.56;5085127;28;20028;-83
2022/12/29 06:32:03;;;;;;;6.47;1.85;;;;;;;8.38;100.00;96595.72;5079140;28;20119;-83
2022/12/29 06:34:29;;;;;;;4.28;1.70;;;;;;;8.09;100.00;96582.78;5080106;28;20040;-84
2022/12/29 06:36:54;;;;;;;4.57;1.58;;;;;;;8.27;100.00;96586.94;5080166;28;20485;-83
2022/12/29 06:39:20;;;;;;;3.92;1.63;;;;;;;8.33;100.00;96594.84;5079687;28;20115;-85
2022/12/29 06:41:45;;;;;;;5.18;1.70;;;;;;;8.34;100.00;96605.06;5083069;28;20032;-83
2022/12/29 06:44:11;;;;;;;4.22;1.45;;;;;;;8.10;100.00;96583.53;5082119;28;20078;-84
2022/12/29 06:46:36;;;;;;;8.68;1.63;;;;;;;8.20;100.00;96594.16;5079114;28;20462;-84
2022/12/29 06:49:02;;;;;;;6.18;1.70;;;;;;;8.19;100.00;96599.63;5081466;28;20099;-85
2022/12/29 06:51:28;;;;;;;5.20;1.73;;;;;;;8.20;100.00;96609.03;5079811;28;20031;-82
2022/12/29 06:53:54;;;;;;;5.55;1.30;;;;;;;8.01;100.00;96596.22;5083485;28;20035;-84
2022/12/29 06:56:20;;;;;;;7.85;1.60;;;;;;;7.84;100.00;96585.78;5082008;28;20032;-85
2022/12/29 06:58:46;;;;;;;7.10;1.80;;;;;;;8.35;100.00;96622.34;5083325;28;20514;-82
2022/12/29 07:01:12;;;;;;;5.40;1.70;;;;;;;8.28;100.00;96606.03;5078807;28;20118;-82
2022/12/29 07:03:37;;;;;;;7.53;2.00;;;;;;;7.82;100.00;96606.13;5079503;28;20028;-82
2022/12/29 07:06:03;;;;;;;2.30;1.50;;;;;;;8.22;100.00;96606.97;5079648;28;20077;-84
2022/12/29 07:08:29;;;;;;;5.30;1.77;;;;;;;7.90;100.00;96594.50;5077358;28;20115;-84
2022/12/29 07:10:54;;;;;;;4.80;1.98;;;;;;;8.18;100.00;96605.88;5076220;28;20155;-84
2022/12/29 07:13:20;;;;;;;4.40;1.67;;;;;;;7.94;100.00;96606.03;5083175;28;20028;-85
2022/12/29 07:15:45;;;;;;;7.97;1.88;;;;;;;7.96;100.00;96614.44;5077613;28;20114;-82
2022/12/29 07:18:11;;;;;;;2.47;1.42;;;;;;;7.98;100.00;96633.28;5082211;28;20029;-85
2022/12/29 07:20:37;;;;;;;3.55;1.58;;;;;;;7.66;100.00;96610.28;5080545;28;20032;-84
2022/12/29 07:23:03;;;;;;;4.82;1.70;;;;;;;7.97;100.00;96626.47;5080444;28;20033;-84
2022/12/29 07:25:31;;;;;;;9.10;2.10;;;;;;;7.67;100.00;96622.34;5082484;28;20032;-84
2022/12/29 07:27:57;;;;;;;9.68;1.88;;;;;;;8.11;100.00;96622.50;5080941;28;20265;-83
2022/12/29 07:30:23;;;;;;;6.90;1.95;;;;;;;7.91;100.00;96637.88;5080736;28;20389;-83
2022/12/29 07:32:49;;;;;;;8.52;1.73;;;;;;;7.68;100.00;96629.13;5079904;28;20089;-83
2022/12/29 07:35:14;;;;;;;3.63;1.60;;;;;;;7.64;100.00;96643.66;5085833;28;20024;-84
2022/12/29 07:37:40;;;;;;;6.00;1.90;;;;;;;7.66;100.00;96626.75;5081994;28;20035;-85
2022/12/29 07:40:06;;;;;;;6.53;1.70;;;;;;;7.89;100.00;96653.00;5082584;28;20032;-85
2022/12/29 07:42:32;;;;;;;7.53;2.15;;;;;;;7.69;100.00;96615.06;5080166;28;20044;-83
2022/12/29 07:44:58;;;;;;;4.72;1.77;;;;;;;7.85;100.00;96648.22;5076266;28;20024;-85
2022/12/29 07:47:23;;;;;;;5.15;2.13;;;;;;;7.84;100.00;96664.13;5081681;28;20043;-83
2022/12/29 07:49:49;;;;;;;5.95;1.83;;;;;;;7.76;100.00;96657.47;5085154;28;20024;-82
2022/12/29 07:52:15;;;;;;;8.10;1.83;;;;;;;7.83;100.00;96660.72;5085173;28;20055;-82
2022/12/29 07:54:40;;;;;;;10.13;2.05;;;;;;;7.69;100.00;96707.22;5091996;28;20052;-83
2022/12/29 07:57:06;;;;;;;7.88;1.73;;;;;;;8.07;100.00;96694.56;5089389;28;20044;-84
2022/12/29 07:59:32;;;;;;;6.10;2.13;;;;;;;8.29;100.00;96684.19;5087807;28;20549;-83
2022/12/29 08:01:57;;;;;;;6.95;1.55;;;;;;;8.00;100.00;96683.47;5086603;28;20064;-83
2022/12/29 08:04:23;;;;;;;3.63;1.88;;;;;;;7.75;100.00;96692.44;5080364;28;20372;-82
2022/12/29 08:06:49;;;;;;;6.65;1.55;;;;;;;7.62;100.00;96697.94;5084893;28;20028;-82
2022/12/29 08:09:15;;;;;;;4.18;1.48;;;;;;;7.48;100.00;96679.16;5085792;28;20081;-83
2022/12/29 08:11:42;;;;;;;5.60;1.77;;;;;;;7.66;100.00;96701.66;5082957;28;20394;-85
2022/12/29 08:14:08;;;;;;;5.85;1.50;;;;;;;7.66;100.00;96699.06;5084392;28;20032;-85
2022/12/29 08:16:34;;;;;;;13.82;2.00;;;;;;;7.81;100.00;96707.16;5080273;28;20034;-84
2022/12/29 08:19:00;;;;;;;5.93;1.80;;;;;;;7.65;100.00;96703.50;5090550;28;20024;-83
2022/12/29 08:21:27;;;;;;;5.32;1.60;;;;;;;7.63;100.00;96710.78;5088360;28;20020;-84
2022/12/29 08:23:53;;;;;;;7.38;1.73;;;;;;;7.70;100.00;96721.09;5084790;28;20512;-82
2022/12/29 08:26:20;;;;;;;7.00;1.85;;;;;;;7.70;100.00;96726.31;5087421;28;20362;-85
2022/12/29 08:28:54;;;;;;;5.70;1.50;;;;;;;7.57;100.00;96690.81;5069917;28;20382;-83
2022/12/29 08:31:19;;;;;;;2.80;1.38;;;;;;;7.81;100.00;96709.78;5084465;28;20040;-81
2022/12/29 08:33:45;;;;;;;6.35;1.73;;;;;;;7.75;100.00;96749.91;5081976;28;20029;-82
2022/12/29 08:36:11;;;;;;;7.70;2.05;;;;;;;7.82;100.00;96687.09;5086263;28;20032;-82
2022/12/29 08:38:36;;;;;;;3.58;1.25;;;;;;;8.04;100.00;96736.81;5086498;28;20023;-81
2022/12/29 08:41:02;;;;;;;4.80;1.40;;;;;;;8.04;100.00;96747.28;5088038;28;20028;-80
2022/12/29 08:43:28;;;;;;;7.30;1.65;;;;;;;7.72;100.00;96742.53;5081397;28;20025;-83
2022/12/29 08:45:53;;;;;;;5.68;1.30;;;;;;;8.05;100.00;96769.75;5082077;28;20497;-84
2022/12/29 08:48:21;;;;;;;6.50;1.38;;;;;;;7.83;100.00;96756.56;5084028;28;20405;-84
2022/12/29 08:50:48;;;;;;;6.22;1.42;;;;;;;7.73;100.00;96775.44;5082227;28;20024;-83
2022/12/29 08:53:14;;;;;;;7.57;1.92;;;;;;;7.76;100.00;96761.13;5084030;28;20031;-83
2022/12/29 08:55:40;;;;;;;9.45;2.03;;;;;;;7.82;100.00;96787.09;5084912;28;20028;-83
2022/12/29 08:58:05;;;;;;;13.98;1.92;;;;;;;7.73;100.00;96801.56;5084944;28;20059;-84
2022/12/29 09:00:31;;;;;;;3.08;1.33;;;;;;;7.78;100.00;96790.44;5081613;28;20032;-82
2022/12/29 09:02:58;;;;;;;8.07;1.63;;;;;;;7.63;100.00;96798.75;5083085;28;20621;-82
2022/12/29 09:05:23;;;;;;;7.15;2.33;;;;;;;7.97;100.00;96802.28;5081870;28;20111;-80
2022/12/29 09:07:49;;;;;;;6.07;1.70;;;;;;;7.96;100.00;96813.78;5081298;28;20166;-79
2022/12/29 09:10:15;;;;;;;13.30;1.65;;;;;;;7.90;100.00;96824.34;5084447;28;20097;-83
2022/12/29 09:12:44;;;;;;;5.75;1.55;;;;;;;7.90;100.00;96819.91;5071718;28;20036;-81
2022/12/29 09:15:09;;;;;;;4.38;1.40;;;;;;;8.05;100.00;96821.22;5081425;28;20045;-81
2022/12/29 09:17:45;;;;;;;6.72;1.52;;;;;;;7.75;100.00;96796.91;5079536;28;20036;-82
2022/12/29 09:20:17;;;;;;;9.25;2.35;;;;;;;7.84;100.00;96813.00;5084848;28;20039;-85
2022/12/29 09:22:43;;;;;;;8.65;1.60;;;;;;;7.65;100.00;96812.34;5079712;28;20377;-81
2022/12/29 09:25:10;;;;;;;8.82;1.83;;;;;;;8.04;100.00;96825.66;5086076;28;20137;-80
2022/12/29 09:27:37;;;;;;;7.97;2.00;;;;;;;7.68;100.00;96822.38;5077465;28;20028;-80
2022/12/29 09:30:08;;;;;;;7.07;1.80;;;;;;;7.75;100.00;96811.75;5083306;28;20050;-85
2022/12/29 09:32:37;;;;;;;3.75;1.83;;;;;;;7.62;100.00;96810.22;5092702;28;20050;-85
2022/12/29 09:35:03;;;;;;;10.80;1.90;;;;;;;7.93;100.00;96835.09;5084998;28;20055;-80
2022/12/29 09:37:29;;;;;;;7.53;1.58;;;;;;;7.56;100.00;96836.22;5081095;28;20032;-80
2022/12/29 09:39:55;;;;;;;7.20;2.20;;;;;;;7.50;100.00;96837.16;5078168;28;20104;-86
2022/12/29 09:42:33;;;;;;;5.15;1.60;;;;;;;7.67;100.00;96845.06;5078976;28;20052;-84
2022/12/29 09:45:16;;;;;;;12.18;2.03;;;;;;;8.11;100.00;96835.97;5079421;28;20058;-81
2022/12/29 09:47:44;;;;;;;9.65;2.35;;;;;;;7.86;100.00;96834.47;5081854;28;20028;-81
2022/12/29 09:50:16;;;;;;;6.47;1.50;;;;;;;7.85;100.00;96854.53;5078205;28;20032;-82
2022/12/29 09:52:52;;;;;;;9.25;2.05;;;;;;;7.69;100.00;96856.06;5081366;28;20028;-81
2022/12/29 09:55:23;;;;;;;10.57;2.38;;;;;;;7.65;100.00;96886.28;5081800;28;20305;-80
2022/12/29 09:57:57;;;;;;;9.48;2.38;;;;;;;7.66;100.00;96876.59;5086961;28;20054;-84
2022/12/29 10:00:39;;;;;;;7.18;2.00;;;;;;;7.54;100.00;96874.00;5080222;28;20109;-84
2022/12/29 10:03:17;;;;;;;10.57;2.35;;;;;;;7.76;100.00;96870.81;5089197;28;20114;-84
2022/12/29 10:05:56;;;;;;;9.15;1.90;;;;;;;7.48;100.00;96867.91;5083564;28;20025;-87
2022/12/29 10:08:33;;;;;;;11.77;2.50;;;;;;;7.68;100.00;96896.25;5081462;28;20036;-82
2022/12/29 10:11:11;;;;;;;25.23;3.45;;;;;;;8.01;100.00;96888.81;5087372;28;20040;-80
2022/12/29 10:13:55;;;;;;;13.90;2.92;;;;;;;7.96;100.00;96896.56;5077164;28;20103;-89
2022/12/29 10:16:43;;;;;;;14.88;2.33;;;;;;;7.70;100.00;96909.09;5072203;28;20054;-87
2022/12/29 10:19:46;;;;;;;11.77;2.63;;;;;;;7.86;100.00;96902.38;5073795;28;20058;-83
2022/12/29 10:22:33;;;;;;;11.13;3.10;;;;;;;8.18;100.00;96898.56;5063277;28;20386;-82
2022/12/29 10:25:03;;;;;;;13.25;2.53;;;;;;;7.92;100.00;96929.41;5073392;28;20105;-87
2022/12/29 10:27:32;;;;;;;11.70;2.28;;;;;;;7.70;100.00;96925.53;5080809;28;20111;-82
2022/12/29 10:30:01;;;;;;;9.60;3.03;;;;;;;7.18;100.00;96853.16;5090608;28;20020;-88
2022/12/29 10:32:38;;;;;;;10.30;2.17;;;;;;;8.01;100.00;96917.56;5093830;28;20081;-85
2022/12/29 10:35:18;;;;;;;17.48;2.72;;;;;;;8.05;100.00;96920.50;5083836;28;20512;-87
2022/12/29 10:38:09;;;;;;;9.18;2.38;;;;;;;8.17;100.00;96923.09;5079805;28;20039;-86
2022/12/29 10:40:42;;;;;;;12.85;3.53;;;;;;;8.20;100.00;96918.22;5083447;28;20422;-88
2022/12/29 10:43:28;;;;;;;;;;;;;;;8.21;100.00;96919.81;5101433;28;20024;-87
2022/12/29 10:45:57;;;;;;;6.60;2.10;;;;;;;7.81;100.00;96921.34;5091201;28;19934;-89
2022/12/29 10:48:31;;;;;;;12.00;2.55;;;;;;;8.17;100.00;96930.94;5084277;28;20032;-86
2022/12/29 10:50:59;;;;;;;8.82;2.00;;;;;;;7.93;100.00;96933.59;5066314;28;20048;-82
2022/12/29 10:53:31;;;;;;;14.60;3.63;;;;;;;8.12;100.00;96927.19;5075671;28;20459;-84
2022/12/29 10:56:00;;;;;;;8.10;2.47;;;;;;;8.01;100.00;96941.06;5079100;28;20124;-81
2022/12/29 10:58:27;;;;;;;11.98;2.85;;;;;;;7.80;100.00;96938.03;5087281;28;20163;-81
2022/12/29 11:00:54;;;;;;;11.20;2.58;;;;;;;8.05;100.00;96946.63;5083605;28;20032;-81
2022/12/29 11:03:38;;;;;;;12.23;2.63;;;;;;;8.09;100.00;96964.25;5076271;28;20082;-85
2022/12/29 11:06:10;;;;;;;8.38;2.30;;;;;;;8.42;100.00;96954.94;5078552;28;20113;-85
2022/12/29 11:08:41;;;;;;;11.45;2.72;;;;;;;7.98;100.00;96955.41;5079910;28;20474;-81
2022/12/29 11:11:09;;;;;;;12.15;2.42;;;;;;;8.12;100.00;96968.19;5060618;28;20039;-82
2022/12/29 11:13:47;;;;;;;12.30;3.58;;;;;;;8.10;100.00;96970.25;5077058;28;20043;-82
2022/12/29 11:16:13;;;;;;;13.88;2.58;;;;;;;7.93;100.00;96970.16;5080496;28;20031;-83
2022/12/29 11:18:45;;;;;;;8.05;2.40;;;;;;;7.89;100.00;97000.38;5080250;28;20039;-81
2022/12/29 11:21:33;;;;;;;11.35;2.30;;;;;;;8.08;100.00;96986.19;5075667;28;20111;-81
2022/12/29 11:24:02;;;;;;;9.98;2.22;;;;;;;7.84;100.00;96972.34;5077449;28;20039;-80
2022/12/29 11:26:30;;;;;;;12.88;2.33;;;;;;;8.00;100.00;96976.06;5082360;28;20028;-80
2022/12/29 11:29:08;;;;;;;9.68;2.35;;;;;;;7.78;100.00;96981.88;5083138;28;20047;-80
2022/12/29 11:31:52;;;;;;;6.90;2.15;;;;;;;7.79;100.00;96974.84;5074931;28;20637;-80
2022/12/29 11:34:25;;;;;;;14.25;2.58;;;;;;;7.77;100.00;96980.28;5076491;28;20828;-81
2022/12/29 11:36:58;;;;;;;15.50;3.20;;;;;;;7.93;100.00;96976.16;5077685;28;20028;-82
2022/12/29 11:39:31;;;;;;;16.83;2.83;;;;;;;8.06;100.00;96975.16;5081332;28;20497;-82
2022/12/29 11:41:58;;;;;;;14.95;2.78;;;;;;;7.80;100.00;96987.66;5077631;28;20024;-81
2022/12/29 11:44:25;;;;;;;13.68;2.67;;;;;;;7.47;100.00;96960.28;5083257;28;20036;-81
2022/12/29 11:46:52;;;;;;;7.55;3.13;;;;;;;7.71;100.00;96994.25;5087042;28;20438;-81
2022/12/29 11:49:24;;;;;;;13.00;2.83;;;;;;;7.86;100.00;96971.09;5083513;28;20032;-83
2022/12/29 11:51:54;;;;;;;13.25;3.00;;;;;;;7.97;100.00;96971.28;5080404;28;20385;-83
2022/12/29 11:54:23;;;;;;;12.05;3.10;;;;;;;8.20;100.00;96990.56;5079784;28;20513;-80
2022/12/29 11:56:49;;;;;;;18.20;2.95;;;;;;;7.85;100.00;96950.41;5081595;28;20437;-81
2022/12/29 11:59:27;;;;;;;17.58;3.15;;;;;;;8.24;100.00;96991.69;5079097;28;20095;-81
2022/12/29 12:01:54;;;;;;;19.27;3.58;;;;;;;8.11;100.00;96972.66;5078540;28;20025;-80
2022/12/29 12:04:28;;;;;;;15.80;2.55;;;;;;;8.20;100.00;96987.97;5087726;28;20062;-81
2022/12/29 12:07:03;;;;;;;12.60;2.58;;;;;;;8.41;100.00;96995.19;5075682;28;20490;-80
2022/12/29 12:09:54;;;;;;;12.75;2.83;;;;;;;8.26;100.00;97000.13;5075374;28;20110;-81
2022/12/29 12:12:37;;;;;;;9.35;2.67;;;;;;;8.30;100.00;96988.19;5065038;28;20178;-81
2022/12/29 12:15:04;;;;;;;14.13;2.60;;;;;;;8.35;100.00;96964.75;5094274;28;20029;-81
2022/12/29 12:17:50;;;;;;;8.77;2.83;;;;;;;8.49;100.00;96977.56;5084582;28;20408;-80
2022/12/29 12:20:22;;;;;;;9.63;2.25;;;;;;;8.66;100.00;97009.84;5079503;28;20474;-90
2022/12/29 12:23:10;;;;;;;16.55;3.00;;;;;;;8.79;100.00;97010.59;5062919;28;20109;-83